Louisburg, MO (65685)

4:55 PM CST on February 22, 2017 (GMT -0600)
EMAW Place | | Change Station

Elev 997 ft 37.88 °N, 93.15 °W | Updated 4 seconds ago

Clear
Clear
73.6 °F
Feels Like 76 °F
N
3.6
Wind Variable Wind from SSW
Gusts 8.3 mph

Today
High -- | Low -- °F
--% Chance of Precip.
Yesterday
High -- | Low -- °F
Precip. -- in
Pressure 29.68 in
Visibility 10.0 miles
Clouds Clear
Heat Index 76 °F
Dew Point 31 °F
Humidity 21%
Rainfall 0.00 in
Snow Depth Not available.
6:53 AM 5:59 PM
Waning Crescent, 14% visible
METAR KSGF 222252Z 16011KT 10SM CLR 22/13 A2970 RMK AO2 SLP051 T02170128
Pressure 29.68 in
Visibility 10.0 miles
Clouds Clear
Heat Index 76 °F
Dew Point 31 °F
Humidity 21%
Rainfall 0.00 in
Snow Depth Not available.
6:53 AM 5:59 PM
Waning Crescent, 14% visible
METAR KSGF 222252Z 16011KT 10SM CLR 22/13 A2970 RMK AO2 SLP051 T02170128

Get Your Daily Forecast Email!

Thanks for signing up!

Be on the lookout for a verification email in your inbox.

You'll start receiving the daily forecast at 8 AM.

×

10-Day Weather Forecast

Almanac

Astronomy

Feb. 22, 2017 Rise Set
Actual Time
Civil Twilight
Nautical Twilight
Astronomical Twilight
Moon
Length of Visible Light
Length of Day
Tomorrow will be .
, % of the Moon is Illuminated

Today's Extremes

State Highs State Lows

Community

WunderPhotos

Upload Photos

1,962,540 photos uploaded!

WunderBlog® & News

Nearby

Air Quality

  Air Quality AQ Index Pollutant
Not available.

Snow Depth

Station Depth Elevation

Earthquake Activity

City Distance Mag. Time & Date
Minimum magnitude displayed is 2.5.

Coastal Water Temperatures

Place Temperature

Stations

Nearby Weather Stations

Station Location Temp. Windchill Dew Point Humidity Wind Precip. Elev Updated Type
                   

Watches & Warnings

There are currently no watches in effect.